Time;durP1;ratioP1;P1;durP2;ratioP2;P2;SDS_P1;SDS_P2;PMS_P1;PMS_P2;Temp;Humidity;BMP_temperature;BMP_pressure;BME280_temperature;BME280_humidity;BME280_pressure;Samples;Min_cycle;Max_cycle;Signal;HPM_P1;HPM_P2
2022/05/03 00:01:30;;;;;;;;;38.75;32.25;;;;;15.41;45.17;101267.47;5014876;28;45506;-70
2022/05/03 00:04:15;;;;;;;;;41.25;31.50;;;;;15.38;45.36;101269.22;5014725;28;45528;-70
2022/05/03 00:07:03;;;;;;;;;42.00;33.00;;;;;15.34;45.52;101267.34;5014387;28;45674;-70
2022/05/03 00:09:50;;;;;;;;;40.75;32.00;;;;;15.32;45.29;101274.50;5014268;28;46013;-70
2022/05/03 00:12:20;;;;;;;;;39.25;31.25;;;;;15.27;45.14;101250.19;5014342;28;45441;-70
2022/05/03 00:14:50;;;;;;;;;43.00;34.25;;;;;15.19;45.20;101236.63;5014786;28;45805;-70
2022/05/03 00:17:18;;;;;;;;;39.75;32.75;;;;;15.30;45.58;101259.22;5014181;28;46441;-70
2022/05/03 00:19:44;;;;;;;;;39.75;32.25;;;;;15.28;45.70;101255.59;5014337;28;45477;-70
2022/05/03 00:22:12;;;;;;;;;44.50;34.25;;;;;15.05;45.45;101216.69;5014263;28;45266;-70
2022/05/03 00:24:38;;;;;;;;;37.75;33.25;;;;;14.91;45.67;101189.53;5014290;28;45614;-70
2022/05/03 00:27:04;;;;;;;;;39.25;33.50;;;;;15.08;45.54;101220.31;4996001;28;47268;-70
2022/05/03 00:29:32;;;;;;;;;37.75;32.00;;;;;15.04;45.67;101228.31;5014188;28;45530;-70
2022/05/03 00:31:59;;;;;;;;;32.00;31.00;;;;;15.16;45.73;101258.09;5008198;28;45499;-72
2022/05/03 00:34:26;;;;;;;;;41.75;33.25;;;;;14.70;45.97;101172.19;5008291;28;45373;-71
2022/05/03 00:36:51;;;;;;;;;45.00;35.50;;;;;14.70;46.24;101172.19;5014382;28;46683;-70
2022/05/03 00:39:17;;;;;;;;;43.50;28.75;;;;;14.98;45.64;101220.13;5013799;28;45606;-71
2022/05/03 00:41:53;;;;;;;;;44.50;34.00;;;;;15.09;45.63;101249.00;5014248;28;45480;-70
2022/05/03 00:44:55;;;;;;;;;44.50;36.00;;;;;15.10;45.87;101241.88;5008198;28;45470;-70
2022/05/03 00:47:28;;;;;;;;;45.00;35.50;;;;;15.06;45.74;101243.63;5013874;28;46149;-70
2022/05/03 00:50:07;;;;;;;;;39.50;32.00;;;;;14.90;45.92;101211.97;5014183;28;45442;-70
2022/05/03 00:52:55;;;;;;;;;38.50;32.00;;;;;15.01;46.00;101239.03;5008662;28;45388;-70
2022/05/03 00:55:59;;;;;;;;;37.50;29.25;;;;;14.99;45.99;101235.41;5014314;28;45464;-70
2022/05/03 00:58:30;;;;;;;;;38.50;34.75;;;;;14.92;46.08;101238.00;5013707;28;45989;-69
2022/05/03 01:01:04;;;;;;;;;45.25;35.00;;;;;14.87;46.17;101241.50;4994518;28;45574;-70
2022/05/03 01:04:03;;;;;;;;;35.75;32.00;;;;;14.70;46.43;101217.91;5014245;28;45673;-70
2022/05/03 01:07:07;;;;;;;;;46.25;33.00;;;;;14.77;46.29;101250.31;5014214;28;45519;-70
2022/05/03 01:09:50;;;;;;;;;41.00;32.25;;;;;14.62;46.76;101226.69;4992410;28;46382;-70
2022/05/03 01:12:42;;;;;;;;;38.50;33.25;;;;;14.62;46.30;101229.38;5007841;28;45365;-70
2022/05/03 01:15:24;;;;;;;;;42.00;32.00;;;;;14.73;46.85;101242.19;5013872;28;45424;-70
2022/05/03 01:18:19;;;;;;;;;43.25;35.75;;;;;14.69;46.90;101236.72;5013881;28;45388;-70
2022/05/03 01:21:05;;;;;;;;;35.25;30.25;;;;;14.69;46.21;101242.97;5009546;28;46030;-70
2022/05/03 01:23:37;;;;;;;;;39.25;32.25;;;;;14.66;46.74;101242.03;5013488;28;45465;-70
2022/05/03 01:26:57;;;;;;;;;38.75;31.50;;;;;14.66;46.60;101244.72;5013714;28;45331;-69
2022/05/03 01:29:35;;;;;;;;;38.00;30.50;;;;;14.53;46.62;101222.03;4971453;28;45444;-69
2022/05/03 01:32:11;;;;;;;;;32.75;29.50;;;;;14.61;46.67;101247.31;5007069;28;46242;-70
2022/05/03 01:34:37;;;;;;;;;39.75;34.00;;;;;14.62;46.66;101245.53;5013331;28;45329;-70
2022/05/03 01:37:21;;;;;;;;;33.75;30.00;;;;;14.57;46.74;101235.56;5013685;28;45430;-69
2022/05/03 01:40:05;;;;;;;;;35.25;31.00;;;;;14.53;46.91;101233.69;5013934;28;45898;-69
2022/05/03 01:42:58;;;;;;;;;41.75;34.50;;;;;14.52;47.11;101233.69;5013340;28;45277;-70
2022/05/03 01:45:49;;;;;;;;;38.00;33.00;;;;;14.50;46.91;101230.06;5013236;28;45389;-70
2022/05/03 01:51:44;;;;;;;;;30.25;29.25;;;;;14.49;46.59;101231.84;5013604;28;46080;-70
2022/05/03 01:54:47;;;;;;;;;32.75;29.25;;;;;14.46;46.88;101223.72;5013490;28;46258;-70
2022/05/03 01:57:26;;;;;;;;;29.00;27.25;;;;;14.45;47.27;101224.63;5013340;28;45448;-70
2022/05/03 02:00:05;;;;;;;;;28.00;26.75;;;;;14.43;46.55;101226.34;5014653;28;45671;-69
2022/05/03 02:02:42;;;;;;;;;38.00;31.50;;;;;14.41;46.55;101220.03;5016680;28;45420;-71
2022/05/03 02:05:13;;;;;;;;;37.75;33.50;;;;;14.17;46.92;101177.47;5016220;28;46213;-70
2022/05/03 02:07:57;;;;;;;;;34.50;30.75;;;;;14.40;47.15;101223.59;5016415;28;45506;-69
2022/05/03 02:10:38;;;;;;;;;37.00;31.50;;;;;14.36;46.87;101222.66;5016919;28;45498;-70
2022/05/03 02:14:43;;;;;;;;;42.25;33.25;;;;;14.29;46.66;101214.47;5017192;28;45564;-70
2022/05/03 02:16:27;;;;;;;;;35.75;30.50;;;;;14.31;47.15;101224.34;5016255;28;45338;-70
2022/05/03 02:19:37;;;;;;;;;31.75;28.75;;;;;14.33;47.52;101216.31;5016147;28;45404;-70
2022/05/03 02:22:21;;;;;;;;;33.75;30.00;;;;;14.31;47.31;101221.66;5001344;28;45515;-70
2022/05/03 02:25:08;;;;;;;;;35.00;30.50;;;;;14.33;46.76;101224.38;5016420;28;45467;-70
2022/05/03 02:27:35;;;;;;;;;34.50;31.25;;;;;14.32;47.26;101227.94;5016157;28;45456;-70
2022/05/03 02:30:03;;;;;;;;;42.25;30.50;;;;;14.28;46.98;101224.28;4994675;28;45483;-70
2022/05/03 02:32:50;;;;;;;;;33.25;30.75;;;;;13.91;47.29;101161.81;5013823;28;45436;-69
2022/05/03 02:35:21;;;;;;;;;36.75;31.50;;;;;14.30;47.08;101232.38;5016201;28;45523;-69
2022/05/03 02:37:55;;;;;;;;;37.50;30.75;;;;;14.28;47.48;101229.66;5016119;28;45523;-70
2022/05/03 02:40:25;;;;;;;;;37.50;33.00;;;;;14.29;46.95;101234.16;5015861;28;45352;-70
2022/05/03 02:42:51;;;;;;;;;37.25;32.00;;;;;14.30;47.29;101233.28;5016184;28;45477;-69
2022/05/03 02:45:18;;;;;;;;;36.50;28.50;;;;;14.21;47.45;101226.84;5016609;28;45502;-70
2022/05/03 02:48:05;;;;;;;;;35.75;30.25;;;;;14.23;47.66;101236.72;5015924;28;46297;-70
2022/05/03 02:50:42;;;;;;;;;38.00;33.00;;;;;14.24;47.52;101234.94;5015796;28;45419;-70
2022/05/03 02:53:26;;;;;;;;;38.25;32.25;;;;;14.22;46.93;101237.59;5015899;28;45305;-69
2022/05/03 02:55:54;;;;;;;;;33.75;31.75;;;;;14.21;47.18;101232.22;5014893;28;45573;-69
2022/05/03 02:58:31;;;;;;;;;34.25;30.25;;;;;14.24;47.01;101233.19;5015815;28;46376;-70
2022/05/03 03:04:32;;;;;;;;;37.50;32.25;;;;;14.23;47.12;101234.03;5015652;28;45423;-69
2022/05/03 03:06:59;;;;;;;;;38.50;32.50;;;;;14.21;47.04;101226.84;5015819;28;45374;-70
2022/05/03 03:10:02;;;;;;;;;41.75;30.75;;;;;14.15;47.14;101215.06;5015438;28;45361;-70
2022/05/03 03:12:59;;;;;;;;;40.75;31.25;;;;;14.22;47.60;101223.25;5010684;28;45481;-70
2022/05/03 03:15:28;;;;;;;;;37.50;32.25;;;;;14.06;47.12;101206.84;5007588;28;45407;-70
2022/05/03 03:17:56;;;;;;;;;55.00;41.25;;;;;13.97;47.20;101206.66;5015720;28;45678;-70
2022/05/03 03:20:27;;;;;;;;;39.25;33.25;;;;;14.15;47.41;101230.31;5015216;28;46186;-70
2022/05/03 03:22:52;;;;;;;;;35.25;31.25;;;;;14.15;47.48;101233.00;5015160;28;45433;-70
2022/05/03 03:25:19;;;;;;;;;46.00;38.25;;;;;14.19;47.14;101232.19;5015278;28;45370;-69
2022/05/03 03:27:48;;;;;;;;;43.50;33.50;;;;;14.07;47.27;101215.81;5015499;28;45361;-70
2022/05/03 03:30:15;;;;;;;;;36.50;32.75;;;;;14.16;47.86;101226.75;4993441;28;48470;-70
2022/05/03 03:32:44;;;;;;;;;38.75;35.50;;;;;14.18;47.37;101233.06;5013860;28;45423;-70
2022/05/03 03:35:13;;;;;;;;;44.00;33.25;;;;;14.17;46.74;101232.16;5015227;28;45456;-69
2022/05/03 03:37:42;;;;;;;;;38.75;32.25;;;;;14.10;47.29;101226.63;5015337;28;45530;-69
2022/05/03 03:40:13;;;;;;;;;39.00;31.50;;;;;14.22;46.49;101225.94;5015125;28;45387;-69
2022/05/03 03:42:40;;;;;;;;;42.50;32.00;;;;;14.01;47.31;101187.97;5014660;28;45461;-70
2022/05/03 03:45:07;;;;;;;;;39.00;34.00;;;;;14.22;46.61;101224.16;5014811;28;45427;-70
2022/05/03 03:47:34;;;;;;;;;38.25;32.00;;;;;14.23;46.83;101223.28;5015018;28;45594;-70
2022/05/03 03:50:00;;;;;;;;;39.50;34.00;;;;;14.11;47.06;101196.19;5014638;28;45654;-70
2022/05/03 03:52:26;;;;;;;;;45.25;35.00;;;;;14.08;47.17;101191.66;5014346;28;45333;-70
2022/05/03 03:54:53;;;;;;;;;43.00;32.75;;;;;14.18;47.44;101220.50;5014814;28;45428;-70
2022/05/03 03:57:22;;;;;;;;;37.00;30.75;;;;;14.19;46.99;101218.75;5014880;28;45588;-70
2022/05/03 03:59:48;;;;;;;;;36.00;32.25;;;;;14.14;46.89;101218.66;5014239;28;45327;-70
2022/05/03 04:02:17;;;;;;;;;39.00;34.25;;;;;14.08;46.79;101204.19;5014325;28;45426;-70
2022/05/03 04:04:44;;;;;;;;;35.50;32.25;;;;;14.16;47.06;101222.28;5014468;28;45443;-70
2022/05/03 04:07:09;;;;;;;;;43.25;35.25;;;;;14.21;46.89;101221.47;5014783;28;45493;-69
2022/05/03 04:09:35;;;;;;;;;44.25;35.75;;;;;14.19;47.11;101224.13;5014507;28;46002;-70
2022/05/03 04:12:02;;;;;;;;;34.25;29.25;;;;;14.19;47.15;101225.03;5014260;28;45483;-70
2022/05/03 04:14:28;;;;;;;;;45.00;34.50;;;;;14.18;46.69;101225.88;5014574;28;45455;-69
2022/05/03 04:16:54;;;;;;;;;38.25;30.25;;;;;14.15;47.27;101227.63;5014745;28;45381;-70
2022/05/03 04:19:21;;;;;;;;;39.25;34.00;;;;;13.97;47.03;101190.53;5013711;28;45964;-70
2022/05/03 04:21:47;;;;;;;;;41.00;33.00;;;;;14.11;46.78;101223.97;5014405;28;45390;-70
2022/05/03 04:24:12;;;;;;;;;39.25;34.25;;;;;14.00;46.91;101209.41;5014089;28;45313;-70
2022/05/03 04:26:38;;;;;;;;;39.50;32.00;;;;;14.11;46.98;101237.41;5014505;28;45363;-70
2022/05/03 04:29:04;;;;;;;;;49.00;38.00;;;;;14.09;46.94;101233.78;5014376;28;45803;-70
2022/05/03 04:31:31;;;;;;;;;46.00;35.00;;;;;14.05;47.18;101231.00;5014277;28;45519;-70
2022/05/03 04:33:58;;;;;;;;;44.00;36.00;;;;;14.08;47.37;101231.97;5014412;28;45525;-70
2022/05/03 04:36:25;;;;;;;;;43.75;37.00;;;;;14.06;47.01;101246.25;5014568;28;45433;-70
2022/05/03 04:38:51;;;;;;;;;41.25;33.00;;;;;13.94;47.39;101217.34;5014005;28;47119;-71
2022/05/03 04:41:16;;;;;;;;;42.75;33.50;;;;;14.03;47.29;101241.72;5014247;28;45396;-70
2022/05/03 04:43:42;;;;;;;;;45.50;34.75;;;;;13.83;47.12;101206.41;5014282;28;45378;-70
2022/05/03 04:46:07;;;;;;;;;43.50;35.25;;;;;13.95;47.79;101237.97;5014427;28;45514;-70
2022/05/03 04:48:33;;;;;;;;;44.00;34.00;;;;;13.81;47.63;101219.78;5012978;28;45887;-70
2022/05/03 04:50:58;;;;;;;;;44.00;36.50;;;;;13.83;47.34;101225.19;5014376;28;45613;-70
2022/05/03 04:53:24;;;;;;;;;36.00;32.00;;;;;13.89;47.53;101230.72;4996110;28;45391;-70
2022/05/03 04:55:49;;;;;;;;;42.75;34.25;;;;;13.90;48.08;101232.50;5014033;28;45322;-71
2022/05/03 04:58:15;;;;;;;;;40.00;33.25;;;;;13.71;47.80;101195.38;5013656;28;46034;-70
2022/05/03 05:00:41;;;;;;;;;45.25;34.00;;;;;13.85;48.02;101233.28;5014007;28;45479;-70
2022/05/03 05:03:06;;;;;;;;;39.00;33.75;;;;;13.89;48.01;101237.84;5013968;28;45362;-70
2022/05/03 05:05:32;;;;;;;;;43.50;34.25;;;;;13.81;47.68;101229.66;5013801;28;45370;-70
2022/05/03 05:08:05;;;;;;;;;43.50;33.50;;;;;13.88;48.66;101238.72;5013859;28;45971;-70
2022/05/03 05:10:32;;;;;;;;;44.75;34.75;;;;;13.73;47.96;101220.53;5013606;28;45325;-70
2022/05/03 05:12:58;;;;;;;;;42.75;35.25;;;;;13.93;47.70;101247.78;5013593;28;45376;-70
2022/05/03 05:15:24;;;;;;;;;37.75;32.50;;;;;13.96;47.68;101239.78;5014027;28;45595;-70
2022/05/03 05:17:51;;;;;;;;;48.50;39.50;;;;;13.80;48.12;101209.03;5013416;28;47180;-70
2022/05/03 05:20:17;;;;;;;;;59.00;45.75;;;;;13.93;47.57;101251.38;5013638;28;45497;-70
2022/05/03 05:22:43;;;;;;;;;55.00;43.50;;;;;13.98;48.37;101249.69;5013433;28;45372;-70
2022/05/03 05:25:09;;;;;;;;;50.25;38.50;;;;;13.59;48.45;101179.94;5013542;28;45641;-70
2022/05/03 05:27:34;;;;;;;;;41.00;33.50;;;;;13.86;48.08;101227.97;5013576;28;45831;-70
2022/05/03 05:30:00;;;;;;;;;40.00;34.75;;;;;14.06;47.45;101248.94;5013346;28;45424;-70
2022/05/03 05:32:25;;;;;;;;;48.00;37.25;;;;;13.56;47.71;101161.06;5013599;28;45331;-70
2022/05/03 05:34:51;;;;;;;;;46.25;37.25;;;;;14.16;47.42;101259.91;5014892;28;45261;-70
2022/05/03 05:37:16;;;;;;;;;44.50;34.75;;;;;14.09;48.24;101260.66;5016745;28;45454;-70
2022/05/03 05:39:41;;;;;;;;;43.25;34.75;;;;;14.08;48.06;101264.22;5017068;28;45375;-70
2022/05/03 05:42:07;;;;;;;;;35.00;33.00;;;;;14.02;47.58;101264.06;5016503;28;45469;-70
2022/05/03 05:44:32;;;;;;;;;41.50;34.75;;;;;14.12;47.48;101263.41;5016818;28;45368;-70
2022/05/03 05:46:57;;;;;;;;;54.50;43.00;;;;;14.07;48.04;101243.56;5017017;28;46934;-70
2022/05/03 05:49:23;;;;;;;;;45.50;36.50;;;;;14.17;47.52;101261.72;5016730;28;45423;-70
2022/05/03 05:51:48;;;;;;;;;41.25;36.00;;;;;14.02;47.54;101242.59;5016845;28;45419;-70
2022/05/03 05:54:16;;;;;;;;;45.75;35.75;;;;;14.15;47.71;101270.59;5016703;28;45466;-71
2022/05/03 05:56:42;;;;;;;;;44.75;36.25;;;;;14.05;47.89;101236.38;5010203;28;46343;-70
2022/05/03 05:59:07;;;;;;;;;44.00;33.25;;;;;14.19;47.75;101270.72;5016329;28;45416;-70
2022/05/03 06:01:37;;;;;;;;;44.00;32.75;;;;;14.22;48.36;101267.16;5016046;28;45509;-70
2022/05/03 06:04:03;;;;;;;;;43.75;35.00;;;;;14.13;48.04;101245.50;5016342;28;45498;-70
2022/05/03 06:06:28;;;;;;;;;62.00;47.00;;;;;13.85;47.55;101188.53;5016030;28;45968;-70
2022/05/03 06:08:53;;;;;;;;;43.50;34.00;;;;;14.35;47.80;101273.69;5016223;28;45392;-70
2022/05/03 06:11:19;;;;;;;;;40.25;35.00;;;;;14.22;47.46;101242.97;5016346;28;45655;-70
2022/05/03 06:13:44;;;;;;;;;42.25;35.50;;;;;14.46;47.75;101282.88;5016568;28;45522;-70
2022/05/03 06:16:11;;;;;;;;;40.00;33.25;;;;;14.53;47.08;101286.56;5016225;28;45462;-71
2022/05/03 06:18:40;;;;;;;;;46.75;37.75;;;;;14.61;47.35;101282.28;5016156;28;45510;-70
2022/05/03 06:21:07;;;;;;;;;57.00;41.00;;;;;14.65;46.90;101283.22;5016706;28;45418;-71
2022/05/03 06:23:33;;;;;;;;;54.50;44.25;;;;;13.97;47.06;101174.44;4995435;28;45598;-71
2022/05/03 06:25:59;;;;;;;;;47.75;38.75;;;;;14.59;46.84;101280.44;5013919;28;47003;-71
2022/05/03 06:28:24;;;;;;;;;45.00;36.50;;;;;14.57;46.63;101275.00;5015702;28;45399;-71
2022/05/03 06:30:50;;;;;;;;;41.00;33.50;;;;;14.67;47.21;101300.34;5015807;28;45372;-71
2022/05/03 06:33:15;;;;;;;;;43.75;38.25;;;;;14.60;46.40;101284.94;5016028;28;45375;-71
2022/05/03 06:35:41;;;;;;;;;41.75;36.00;;;;;14.66;47.00;101295.81;5015501;28;45715;-71
2022/05/03 06:38:06;;;;;;;;;70.00;51.00;;;;;14.38;47.09;101254.94;5015550;28;45326;-70
2022/05/03 06:40:31;;;;;;;;;58.00;44.75;;;;;14.56;46.80;101287.53;5015390;28;45301;-71
2022/05/03 06:42:57;;;;;;;;;39.25;32.00;;;;;14.62;46.56;101304.69;5015935;28;45564;-71
2022/05/03 06:45:23;;;;;;;;;45.50;36.00;;;;;14.56;47.11;101300.97;5015252;28;46300;-71
2022/05/03 06:47:49;;;;;;;;;48.25;37.50;;;;;14.50;46.78;101290.13;5015169;28;45465;-71
2022/05/03 06:50:14;;;;;;;;;45.25;36.00;;;;;14.47;47.10;101275.69;5015196;28;45513;-71
2022/05/03 06:52:41;;;;;;;;;45.00;36.50;;;;;14.35;47.09;101255.78;5015484;28;45907;-71
2022/05/03 06:55:07;;;;;;;;;47.00;34.50;;;;;14.64;46.83;101305.66;5015357;28;46456;-70
2022/05/03 06:57:33;;;;;;;;;47.00;37.25;;;;;14.61;47.07;101284.97;5015407;28;45289;-71
2022/05/03 07:00:04;;;;;;;;;49.75;37.25;;;;;14.70;47.12;101303.97;5015654;28;45455;-71
2022/05/03 07:02:34;;;;;;;;;49.50;40.50;;;;;14.73;46.79;101304.03;5015356;28;45540;-71
2022/05/03 07:05:00;;;;;;;;;53.50;40.75;;;;;14.78;46.94;101303.19;5008978;28;46214;-71
2022/05/03 07:07:27;;;;;;;;;49.00;38.75;;;;;14.68;46.73;101283.28;5014987;28;45537;-71
2022/05/03 07:09:54;;;;;;;;;48.50;36.00;;;;;14.82;46.61;101305.97;5008864;28;45387;-71
2022/05/03 07:12:20;;;;;;;;;44.50;35.50;;;;;14.80;46.89;101288.91;5009027;28;45528;-70
2022/05/03 07:14:45;;;;;;;;;44.75;35.25;;;;;14.88;46.49;101305.16;5015134;28;46252;-71
2022/05/03 07:22:45;;;;;;;;;46.00;36.25;;;;;14.76;46.49;101284.34;5014842;28;45308;-71
2022/05/03 07:22:45;;;;;;;;;48.00;37.75;;;;;14.92;46.68;101305.25;5015082;28;45456;-71
2022/05/03 07:25:11;;;;;;;;;45.00;37.50;;;;;14.92;46.17;101310.63;5014519;28;45466;-71
2022/05/03 07:27:36;;;;;;;;;49.50;38.00;;;;;14.77;46.25;101279.88;5014526;28;45367;-71
2022/05/03 07:30:02;;;;;;;;;40.00;34.75;;;;;14.96;46.54;101316.06;5014902;28;45387;-71
2022/05/03 07:32:28;;;;;;;;;53.75;43.00;;;;;14.96;46.21;101295.44;5015297;28;45459;-71
2022/05/03 07:34:53;;;;;;;;;49.25;39.00;;;;;15.04;45.85;101306.34;5014909;28;46022;-71
2022/05/03 07:37:18;;;;;;;;;43.25;34.25;;;;;14.96;46.38;101284.69;5014841;28;45654;-71
2022/05/03 07:39:44;;;;;;;;;46.00;36.00;;;;;15.14;45.88;101300.22;5014624;28;45395;-71
2022/05/03 07:42:09;;;;;;;;;45.50;36.00;;;;;15.19;45.46;101301.22;5014963;28;45400;-71
2022/05/03 07:44:34;;;;;;;;;44.00;35.00;;;;;15.32;45.65;101304.13;4994407;28;47185;-70
2022/05/03 07:47:00;;;;;;;;;46.25;39.25;;;;;15.23;45.46;101275.28;5014479;28;45443;-71
2022/05/03 07:49:25;;;;;;;;;44.50;34.50;;;;;15.29;45.10;101288.81;5012831;28;45578;-71
2022/05/03 07:51:51;;;;;;;;;44.50;38.75;;;;;15.42;44.90;101301.56;5014626;28;45412;-70
2022/05/03 07:54:16;;;;;;;;;50.25;41.00;;;;;15.61;45.06;101309.97;5013946;28;45923;-70
2022/05/03 07:56:41;;;;;;;;;42.75;37.75;;;;;15.69;44.61;101316.34;5013793;28;45438;-71
2022/05/03 07:59:09;;;;;;;;;52.75;41.00;;;;;15.83;44.73;101311.19;5013472;28;45337;-71
2022/05/03 08:01:35;;;;;;;;;49.75;38.00;;;;;15.96;44.98;101310.47;4992788;28;45374;-71
2022/05/03 08:04:00;;;;;;;;;41.50;34.50;;;;;16.11;44.21;101311.56;5012699;28;45995;-71
2022/05/03 08:06:27;;;;;;;;;45.25;36.00;;;;;16.11;43.81;101298.97;5014226;28;45291;-71
2022/05/03 08:08:52;;;;;;;;;38.75;32.00;;;;;16.35;43.99;101309.16;5014555;28;45377;-71
2022/05/03 08:11:18;;;;;;;;;49.75;38.00;;;;;16.34;43.56;101301.06;5015032;28;45393;-70
2022/05/03 08:13:45;;;;;;;;;41.75;33.25;;;;;16.42;43.52;101314.63;5014462;28;45348;-70
2022/05/03 08:16:21;;;;;;;;;41.50;37.50;;;;;16.51;43.05;101320.13;5014319;28;45710;-70
2022/05/03 08:18:48;;;;;;;;;42.50;34.00;;;;;16.57;43.28;101309.41;5013802;28;45540;-71
2022/05/03 08:21:14;;;;;;;;;48.00;39.00;;;;;16.57;43.05;101320.19;5014083;28;45300;-71
2022/05/03 08:23:40;;;;;;;;;43.00;36.00;;;;;16.40;42.75;101296.63;5013913;28;46001;-71
2022/05/03 08:26:05;;;;;;;;;45.00;35.25;;;;;16.56;42.59;101294.09;5013532;28;45292;-70
2022/05/03 08:28:31;;;;;;;;;40.50;34.00;;;;;16.54;43.05;101283.28;4995981;28;45319;-70
2022/05/03 08:30:57;;;;;;;;;41.75;34.50;;;;;16.76;42.40;101311.41;5014087;28;45289;-69
2022/05/03 08:33:23;;;;;;;;;46.50;39.00;;;;;16.76;42.68;101306.00;5013364;28;47095;-69
2022/05/03 08:35:48;;;;;;;;;50.25;39.50;;;;;16.86;42.44;101306.09;5012363;28;45475;-69
2022/05/03 08:43:44;;;;;;;;;44.50;39.00;;;;;16.87;42.43;101279.13;5012938;28;45466;-72
2022/05/03 08:46:09;;;;;;;;;39.75;36.25;;;;;16.77;41.54;101256.53;4995590;28;45614;-69
2022/05/03 08:48:40;;;;;;;;;43.00;33.50;;;;;17.03;41.39;101290.97;5013361;28;45336;-71
2022/05/03 08:51:07;;;;;;;;;39.25;31.75;;;;;17.27;41.17;101310.97;5013840;28;45455;-71
2022/05/03 08:53:34;;;;;;;;;34.25;32.25;;;;;17.32;40.71;101301.09;5013552;28;46153;-71
2022/05/03 08:56:00;;;;;;;;;38.50;33.50;;;;;17.40;40.19;101304.75;5013597;28;45424;-72
2022/05/03 08:58:25;;;;;;;;;38.25;34.00;;;;;17.54;40.40;101320.16;5014049;28;45437;-71
2022/05/03 09:00:51;;;;;;;;;39.75;34.00;;;;;17.52;40.13;101298.53;5013743;28;45404;-71
2022/05/03 09:03:16;;;;;;;;;40.00;32.00;;;;;17.67;40.21;101313.97;5012933;28;46168;-71
2022/05/03 09:05:41;;;;;;;;;31.50;29.75;;;;;17.75;40.32;101304.09;5013550;28;45712;-70
2022/05/03 09:08:10;;;;;;;;;33.25;29.75;;;;;17.54;39.45;101255.31;5013435;28;45577;-71
2022/05/03 09:10:39;;;;;;;;;29.50;28.00;;;;;17.92;39.31;101312.34;5015932;28;45280;-71
2022/05/03 09:13:19;;;;;;;;;30.25;28.00;;;;;17.95;39.19;101314.13;5017015;28;45639;-71
2022/05/03 09:15:55;;;;;;;;;27.75;22.25;;;;;17.83;39.28;101294.22;5016769;28;45354;-72
2022/05/03 09:18:28;;;;;;;;;51.25;43.75;;;;;18.00;39.47;101317.75;5016382;28;46188;-71
2022/05/03 09:23:47;;;;;;;;;35.75;28.00;;;;;18.08;39.41;101316.00;5016326;28;45819;-71
2022/05/03 09:26:22;;;;;;;;;36.75;34.50;;;;;18.17;39.42;101316.03;5016653;28;45567;-72
2022/05/03 09:28:52;;;;;;;;;33.50;25.00;;;;;18.22;39.99;101326.88;4995461;28;45338;-72
2022/05/03 09:31:40;;;;;;;;;42.00;33.25;;;;;18.26;39.55;101315.16;5010606;28;45345;-71
2022/05/03 09:34:25;;;;;;;;;30.50;27.25;;;;;18.36;39.17;101303.50;5016418;28;45444;-72
2022/05/03 09:36:52;;;;;;;;;28.00;25.75;;;;;18.32;39.38;101274.63;5016184;28;45514;-70
2022/05/03 09:39:20;;;;;;;;;18.00;4.50;;;;;18.68;38.99;101304.50;5016294;28;45375;-70
2022/05/03 09:42:09;;;;;;;;;28.25;25.00;;;;;18.70;38.19;101302.69;5016415;28;45554;-69
2022/05/03 09:44:50;;;;;;;;;26.50;23.75;;;;;18.79;37.44;101306.31;5014470;28;47322;-72
2022/05/03 09:47:17;;;;;;;;;29.00;26.00;;;;;18.88;37.34;101299.13;4998122;28;45352;-72
2022/05/03 09:49:43;;;;;;;;;23.00;22.00;;;;;18.90;37.04;101281.97;5016278;28;45377;-72
2022/05/03 09:52:29;;;;;;;;;18.50;17.50;;;;;18.70;36.99;101218.78;5016220;28;45446;-71
2022/05/03 09:55:08;;;;;;;;;33.25;29.50;;;;;18.98;36.61;101263.03;5015900;28;45681;-72
2022/05/03 09:57:36;;;;;;;;;35.00;32.25;;;;;19.21;36.89;101303.66;5015905;28;45410;-71
2022/05/03 10:00:04;;;;;;;;;27.75;24.75;;;;;19.12;36.89;101263.94;5016361;28;45358;-72
2022/05/03 10:02:30;;;;;;;;;31.25;26.50;;;;;19.34;36.71;101289.19;5016760;28;45502;-71
2022/05/03 10:04:57;;;;;;;;;25.50;22.50;;;;;19.42;36.68;101283.75;5017006;28;45444;-72
2022/05/03 10:07:24;;;;;;;;;26.25;24.25;;;;;19.39;35.95;101258.50;5017171;28;45423;-71
2022/05/03 10:09:50;;;;;;;;;28.00;24.50;;;;;19.57;36.49;101280.13;5015900;28;45591;-71
2022/05/03 10:12:16;;;;;;;;;25.75;24.75;;;;;19.65;35.89;101283.72;4994794;28;45727;-72
2022/05/03 10:14:43;;;;;;;;;28.75;22.25;;;;;19.66;35.75;101284.59;5014518;28;46249;-71
2022/05/03 10:20:50;;;;;;;;;30.50;23.25;;;;;19.75;35.42;101290.06;5015443;28;45411;-71
2022/05/03 10:23:33;;;;;;;;;24.00;22.50;;;;;19.72;35.27;101273.75;4953636;28;45616;-71
2022/05/03 10:26:01;;;;;;;;;23.25;19.00;;;;;19.78;35.00;101283.69;5010547;28;46441;-71
2022/05/03 10:29:03;;;;;;;;;22.75;19.50;;;;;19.83;34.73;101279.16;5015593;28;45360;-71
2022/05/03 10:31:29;;;;;;;;;26.50;25.00;;;;;19.86;35.01;101276.44;5015594;28;45351;-71
2022/05/03 10:33:55;;;;;;;;;26.75;23.00;;;;;19.44;34.31;101195.22;5014505;28;45405;-71
2022/05/03 10:36:30;;;;;;;;;21.75;21.00;;;;;19.93;34.41;101278.25;5015950;28;46936;-71
2022/05/03 10:39:05;;;;;;;;;22.50;20.75;;;;;19.93;34.50;101267.41;5015495;28;45324;-71
2022/05/03 10:41:31;;;;;;;;;24.50;22.50;;;;;20.04;34.28;101280.91;5015351;28;45388;-71
2022/05/03 10:43:56;;;;;;;;;20.50;18.50;;;;;19.99;34.11;101253.78;5015686;28;45494;-72
2022/05/03 10:46:23;;;;;;;;;21.25;17.75;;;;;20.14;34.19;101282.66;5015236;28;45289;-72
2022/05/03 10:49:11;;;;;;;;;18.25;17.50;;;;;20.10;33.45;101270.03;5015429;28;45456;-72
2022/05/03 10:51:37;;;;;;;;;22.75;22.75;;;;;20.00;33.78;101268.28;5015621;28;45545;-71
2022/05/03 10:54:04;;;;;;;;;28.75;24.00;;;;;19.99;33.86;101261.91;5013801;28;45317;-71
2022/05/03 10:56:30;;;;;;;;;17.25;14.00;;;;;19.91;33.76;101243.88;5014971;28;45489;-72
2022/05/03 10:59:12;;;;;;;;;22.50;21.75;;;;;19.94;33.44;101230.31;5014958;28;45686;-72
2022/05/03 11:02:06;;;;;;;;;21.75;19.25;;;;;20.20;33.35;101258.22;5013673;28;45689;-71
2022/05/03 11:04:32;;;;;;;;;45.75;37.75;;;;;20.28;33.05;101262.69;5012598;28;45576;-72
2022/05/03 11:06:57;;;;;;;;;31.00;25.50;;;;;20.34;33.42;101254.53;5014601;28;46219;-71
2022/05/03 11:09:28;;;;;;;;;25.25;21.00;;;;;20.47;33.17;101260.78;5014158;28;45443;-70
2022/05/03 11:12:02;;;;;;;;;28.00;25.50;;;;;20.50;32.77;101260.75;5014959;28;45463;-71
2022/05/03 11:14:28;;;;;;;;;27.00;21.50;;;;;20.53;33.07;101258.03;5014886;28;45447;-71
2022/05/03 11:17:12;;;;;;;;;24.00;23.50;;;;;20.59;33.18;101245.31;5014513;28;46417;-70
2022/05/03 11:19:49;;;;;;;;;21.25;19.50;;;;;20.68;33.38;101244.38;5014092;28;45453;-70
2022/05/03 11:22:30;;;;;;;;;24.00;22.00;;;;;20.41;32.71;101189.34;5014185;28;45403;-71
2022/05/03 11:24:57;;;;;;;;;18.75;18.25;;;;;20.75;32.73;101242.50;5009131;28;45404;-71
2022/05/03 11:27:24;;;;;;;;;26.00;23.50;;;;;20.64;32.72;101223.59;5014087;28;45474;-71
2022/05/03 11:30:11;;;;;;;;;21.00;19.25;;;;;20.80;32.50;101243.38;5014673;28;45459;-71
2022/05/03 11:32:39;;;;;;;;;20.25;18.25;;;;;20.70;32.58;101223.53;5013408;28;45610;-71
2022/05/03 11:35:15;;;;;;;;;22.75;20.75;;;;;20.65;32.59;101211.81;5014812;28;45487;-71
2022/05/03 11:37:49;;;;;;;;;28.00;21.75;;;;;20.56;32.23;101201.00;4992816;28;47540;-71
2022/05/03 11:40:17;;;;;;;;;20.25;18.50;;;;;20.69;32.32;101216.31;5013359;28;45662;-70
2022/05/03 11:42:44;;;;;;;;;21.00;21.00;;;;;20.90;31.91;101236.06;5014496;28;45654;-71
2022/05/03 11:45:11;;;;;;;;;19.50;18.75;;;;;20.93;31.86;101234.19;5014476;28;45656;-71
2022/05/03 11:47:45;;;;;;;;;20.50;20.50;;;;;20.99;31.59;101239.59;5014057;28;45639;-73
2022/05/03 11:50:13;;;;;;;;;15.50;15.50;;;;;20.83;31.53;101191.75;5013890;28;45598;-69